»·PEaware :: WAT380 KOTH-KCOE

WAT380 :: KOTH-KCOE

FLIGHT INFORMATION

Flight Status: Arrived
Operator:
Walker Air Transport
More flights by this operator :: More flights under this callsign
Pilot: Spencer M. (27733)
Aircraft: BEECH AIRCRAFT PREMIER
(PRM1)
More flights by this aircraft type
Origin: KOTH North Bend Mun
United States
Destination: KCOE Coeur d'Alene
United States
More flights between these airports :: More routes between these airports
Route: OTH7 SCOTY V121 EUG J143 GEG
File this flight plan on PilotEdge
Remarks:
Altitude:
(Current/Filed)
29,000ft
Speed:
(Current/Filed)
400kts
Departed: 20-Jan-22 01:59 PM
Arrived: 20-Jan-22 03:12 PM
Distance/Time
Traveled:
407nm/1:13
Distance/Time
To Go:
Arrived

Flight Plot

Page will automatically refresh every two minutes.

Flight plan parsing failed; only flown route is shown


Map Options




Map Legend


Flown Route
Filed Route
Departure Airport
Arrival Airport
Navaid (VOR, NDB)
Fix

Horizontal Profiles

Position Reports

Time Latitude Longitude Heading Altitude Ground
Speed
20-Jan-22 13:43 43.415484 -124.245629 330 28ft 0kts
20-Jan-22 13:44 43.415484 -124.245629 330 28ft 0kts
20-Jan-22 13:45 43.415484 -124.245629 330 28ft 0kts
20-Jan-22 13:46 43.415484 -124.245629 330 28ft 0kts
20-Jan-22 13:47 43.415484 -124.245629 330 28ft 0kts
20-Jan-22 13:48 43.415484 -124.245629 330 28ft 0kts
20-Jan-22 13:49 43.415484 -124.245629 330 28ft 0kts
20-Jan-22 13:50 43.415484 -124.245629 330 28ft 0kts
20-Jan-22 13:51 43.415484 -124.245629 330 28ft 0kts
20-Jan-22 13:52 43.416205 -124.244949 93 24ft 7kts
20-Jan-22 13:53 43.414672 -124.243523 147 23ft 8kts
20-Jan-22 13:54 43.412602 -124.241862 150 20ft 8kts
20-Jan-22 13:55 43.410590 -124.240246 147 18ft 7kts
20-Jan-22 13:56 43.408933 -124.238700 83 15ft 0kts
20-Jan-22 13:57 43.408937 -124.238658 81 15ft 0kts
20-Jan-22 13:58 43.411077 -124.239218 328 15ft 65kts
20-Jan-22 13:59 43.448307 -124.270417 311 1266ft 211kts
20-Jan-22 14:00 43.436844 -124.330644 241 2966ft 182kts
20-Jan-22 14:01 43.409548 -124.392241 254 5001ft 213kts
20-Jan-22 14:02 43.454132 -124.408756 57 7337ft 254kts
20-Jan-22 14:03 43.443091 -124.307945 107 9498ft 293kts
20-Jan-22 14:04 43.423823 -124.194767 83 11932ft 315kts
20-Jan-22 14:05 43.467733 -124.098738 35 14327ft 304kts
20-Jan-22 14:06 43.531844 -124.014581 33 16100ft 325kts
20-Jan-22 14:07 43.598004 -123.926885 32 17901ft 335kts
20-Jan-22 14:08 43.665667 -123.836739 31 19588ft 341kts
20-Jan-22 14:09 43.734043 -123.745378 30 21095ft 345kts
20-Jan-22 14:10 43.803464 -123.652347 29 22440ft 350kts
20-Jan-22 14:11 43.873962 -123.557510 29 23484ft 360kts
20-Jan-22 14:12 43.948802 -123.456848 31 23533ft 387kts
20-Jan-22 14:13 44.024267 -123.354251 31 24486ft 383kts
20-Jan-22 14:14 44.100621 -123.250308 32 25459ft 378kts
20-Jan-22 14:15 44.177086 -123.149817 30 26330ft 380kts
20-Jan-22 14:16 44.256141 -123.048856 31 27010ft 390kts
20-Jan-22 14:17 44.336312 -122.945317 32 27568ft 398kts
20-Jan-22 14:18 44.418433 -122.838902 32 28090ft 406kts
20-Jan-22 14:19 44.501543 -122.730758 33 28524ft 413kts
20-Jan-22 14:20 44.585891 -122.620510 33 29004ft 418kts
20-Jan-22 14:21 44.671536 -122.508084 34 29397ft 424kts
20-Jan-22 14:22 44.758911 -122.392986 34 29411ft 437kts
20-Jan-22 14:23 44.848296 -122.274585 36 29399ft 444kts
20-Jan-22 14:24 44.938163 -122.154943 36 29408ft 441kts
20-Jan-22 14:25 45.010236 -122.058681 36 29374ft 440kts
20-Jan-22 14:26 45.099116 -121.939538 38 29316ft 441kts
20-Jan-22 14:27 45.188204 -121.819544 38 29294ft 443kts
20-Jan-22 14:28 45.277447 -121.698773 38 29295ft 443kts
20-Jan-22 14:29 45.366514 -121.577701 38 29296ft 443kts
20-Jan-22 14:30 45.455604 -121.456039 38 29297ft 443kts
20-Jan-22 14:31 45.544687 -121.333821 39 29286ft 444kts
20-Jan-22 14:32 45.633804 -121.210989 40 29281ft 444kts
20-Jan-22 14:33 45.721020 -121.084843 46 29262ft 448kts
20-Jan-22 14:34 45.800973 -120.945537 48 29232ft 453kts
20-Jan-22 14:35 45.877706 -120.809573 49 29232ft 456kts
20-Jan-22 14:36 45.955557 -120.670315 50 29235ft 458kts
20-Jan-22 14:37 46.036224 -120.525768 51 29237ft 462kts
20-Jan-22 14:38 46.117550 -120.378566 52 29230ft 465kts
20-Jan-22 14:39 46.198492 -120.231767 52 29193ft 464kts
20-Jan-22 14:40 46.278686 -120.085441 52 29179ft 465kts
20-Jan-22 14:41 46.359072 -119.938503 53 29171ft 466kts
20-Jan-22 14:42 46.439305 -119.790148 53 29174ft 467kts
20-Jan-22 14:43 46.519484 -119.641731 53 29174ft 468kts
20-Jan-22 14:44 46.599325 -119.492813 52 29175ft 468kts
20-Jan-22 14:45 46.679389 -119.342772 53 29188ft 468kts
20-Jan-22 14:46 46.759272 -119.192044 54 29172ft 468kts
20-Jan-22 14:47 46.839456 -119.040137 53 28556ft 470kts
20-Jan-22 14:48 46.919621 -118.887662 53 26944ft 471kts
20-Jan-22 14:49 46.998345 -118.737288 54 24973ft 459kts
20-Jan-22 14:50 47.074991 -118.589652 53 23017ft 448kts
20-Jan-22 14:51 47.149767 -118.444598 52 20623ft 434kts
20-Jan-22 14:52 47.221090 -118.305822 51 17798ft 415kts
20-Jan-22 14:53 47.288394 -118.173960 49 15139ft 384kts
20-Jan-22 14:54 47.348458 -118.056148 49 15043ft 344kts
20-Jan-22 14:55 47.405896 -117.943193 49 14626ft 358kts
20-Jan-22 14:57 47.465869 -117.824022 48 12895ft 369kts
20-Jan-22 14:58 47.522967 -117.710017 48 11257ft 316kts
20-Jan-22 14:59 47.570638 -117.604347 62 9995ft 311kts
20-Jan-22 15:00 47.600374 -117.498570 68 8310ft 288kts
20-Jan-22 15:01 47.626238 -117.402989 68 6716ft 265kts
20-Jan-22 15:02 47.650184 -117.315106 69 6074ft 218kts
20-Jan-22 15:03 47.672037 -117.234274 68 5710ft 187kts
20-Jan-22 15:04 47.690003 -117.167854 69 5607ft 155kts
20-Jan-22 15:05 47.701499 -117.122635 73 5065ft 140kts
20-Jan-22 15:06 47.711423 -117.082952 72 4517ft 128kts
20-Jan-22 15:07 47.721729 -117.041263 70 4507ft 128kts
20-Jan-22 15:08 47.733293 -116.994240 71 4510ft 127kts
20-Jan-22 15:09 47.741383 -116.961266 70 4078ft 134kts
20-Jan-22 15:10 47.753754 -116.910986 69 3352ft 124kts
20-Jan-22 15:11 47.772557 -116.834401 69 2291ft 108kts
20-Jan-22 15:12 47.778437 -116.810386 72 2316ft 7kts

Navigation Log

Ident Type
Flight plan parsing failed, navigation log unavailable